sensor_id;sensor_type;location;lat;lon;timestamp;pressure;altitude;pressure_sealevel;temperature;humidity
80116;BME280;69423;47.608;19.366;2024-01-10T00:00:14;100474.56;;;-5.37;73.94
80116;BME280;69423;47.608;19.366;2024-01-10T00:00:46;100484.16;;;-5.39;74.59
80116;BME280;69423;47.608;19.366;2024-01-10T00:01:17;100475.56;;;-5.41;74.71
80116;BME280;69423;47.608;19.366;2024-01-10T00:01:48;100479.03;;;-5.42;74.54
80116;BME280;69423;47.608;19.366;2024-01-10T00:02:19;100474.59;;;-5.39;74.68
80116;BME280;69423;47.608;19.366;2024-01-10T00:02:50;100475.50;;;-5.40;74.54
80116;BME280;69423;47.608;19.366;2024-01-10T00:03:21;100473.75;;;-5.39;74.92
80116;BME280;69423;47.608;19.366;2024-01-10T00:03:54;100484.22;;;-5.42;75.32
80116;BME280;69423;47.608;19.366;2024-01-10T00:04:25;100475.44;;;-5.38;75.51
80116;BME280;69423;47.608;19.366;2024-01-10T00:04:56;100466.84;;;-5.40;75.39
80116;BME280;69423;47.608;19.366;2024-01-10T00:05:27;100481.63;;;-5.42;74.76
80116;BME280;69423;47.608;19.366;2024-01-10T00:05:58;100470.28;;;-5.40;75.10
80116;BME280;69423;47.608;19.366;2024-01-10T00:06:29;100473.75;;;-5.39;74.50
80116;BME280;69423;47.608;19.366;2024-01-10T00:07:00;100473.69;;;-5.38;74.42
80116;BME280;69423;47.608;19.366;2024-01-10T00:07:31;100480.66;;;-5.38;74.57
80116;BME280;69423;47.608;19.366;2024-01-10T00:08:02;100478.97;;;-5.39;73.91
80116;BME280;69423;47.608;19.366;2024-01-10T00:08:33;100473.75;;;-5.39;74.13
80116;BME280;69423;47.608;19.366;2024-01-10T00:09:04;100469.44;;;-5.40;74.26
80116;BME280;69423;47.608;19.366;2024-01-10T00:09:35;100475.44;;;-5.38;74.64
80116;BME280;69423;47.608;19.366;2024-01-10T00:10:06;100476.38;;;-5.39;74.30
80116;BME280;69423;47.608;19.366;2024-01-10T00:10:37;100480.78;;;-5.43;74.52
80116;BME280;69423;47.608;19.366;2024-01-10T00:11:09;100471.34;;;-5.45;74.93
80116;BME280;69423;47.608;19.366;2024-01-10T00:11:40;100471.38;;;-5.47;74.62
80116;BME280;69423;47.608;19.366;2024-01-10T00:12:11;100472.31;;;-5.50;74.43
80116;BME280;69423;47.608;19.366;2024-01-10T00:12:42;100467.94;;;-5.47;74.60
80116;BME280;69423;47.608;19.366;2024-01-10T00:13:15;100472.25;;;-5.48;74.46
80116;BME280;69423;47.608;19.366;2024-01-10T00:13:46;100480.16;;;-5.51;73.53
80116;BME280;69423;47.608;19.366;2024-01-10T00:14:17;100472.50;;;-5.56;73.20
80116;BME280;69423;47.608;19.366;2024-01-10T00:14:48;100482.00;;;-5.56;73.09
80116;BME280;69423;47.608;19.366;2024-01-10T00:15:19;100478.63;;;-5.58;73.56
80116;BME280;69423;47.608;19.366;2024-01-10T00:15:50;100479.56;;;-5.61;73.97
80116;BME280;69423;47.608;19.366;2024-01-10T00:16:21;100481.44;;;-5.66;73.97
80116;BME280;69423;47.608;19.366;2024-01-10T00:16:52;100483.19;;;-5.66;74.82
80116;BME280;69423;47.608;19.366;2024-01-10T00:17:23;100480.53;;;-5.65;75.04
80116;BME280;69423;47.608;19.366;2024-01-10T00:17:54;100482.31;;;-5.67;74.95
80116;BME280;69423;47.608;19.366;2024-01-10T00:18:25;100477.09;;;-5.65;75.47
80116;BME280;69423;47.608;19.366;2024-01-10T00:18:56;100474.50;;;-5.65;75.86
80116;BME280;69423;47.608;19.366;2024-01-10T00:19:27;100482.22;;;-5.62;76.14
80116;BME280;69423;47.608;19.366;2024-01-10T00:19:58;100475.22;;;-5.60;76.55
80116;BME280;69423;47.608;19.366;2024-01-10T00:20:29;100476.97;;;-5.61;76.76
80116;BME280;69423;47.608;19.366;2024-01-10T00:21:00;100483.06;;;-5.62;76.66
80116;BME280;69423;47.608;19.366;2024-01-10T00:21:31;100478.72;;;-5.61;76.20
80116;BME280;69423;47.608;19.366;2024-01-10T00:22:02;100483.06;;;-5.62;76.53
80116;BME280;69423;47.608;19.366;2024-01-10T00:22:33;100480.47;;;-5.62;76.79
80116;BME280;69423;47.608;19.366;2024-01-10T00:23:05;100473.66;;;-5.66;76.40
80116;BME280;69423;47.608;19.366;2024-01-10T00:23:37;100475.47;;;-5.70;75.77
80116;BME280;69423;47.608;19.366;2024-01-10T00:24:08;100483.22;;;-5.68;76.18
80116;BME280;69423;47.608;19.366;2024-01-10T00:24:39;100481.50;;;-5.69;76.52
80116;BME280;69423;47.608;19.366;2024-01-10T00:25:10;100478.09;;;-5.71;76.49
80116;BME280;69423;47.608;19.366;2024-01-10T00:25:41;100479.81;;;-5.70;76.63
80116;BME280;69423;47.608;19.366;2024-01-10T00:26:12;100476.31;;;-5.69;76.86
80116;BME280;69423;47.608;19.366;2024-01-10T00:26:43;100472.84;;;-5.68;76.71
80116;BME280;69423;47.608;19.366;2024-01-10T00:27:15;100484.13;;;-5.69;77.07
80116;BME280;69423;47.608;19.366;2024-01-10T00:27:46;100488.44;;;-5.68;77.20
80116;BME280;69423;47.608;19.366;2024-01-10T00:28:17;100483.22;;;-5.68;77.22
80116;BME280;69423;47.608;19.366;2024-01-10T00:28:48;100484.03;;;-5.66;77.22
80116;BME280;69423;47.608;19.366;2024-01-10T00:29:19;100484.84;;;-5.64;77.22
80116;BME280;69423;47.608;19.366;2024-01-10T00:29:50;100484.84;;;-5.64;77.46
80116;BME280;69423;47.608;19.366;2024-01-10T00:30:22;100477.09;;;-5.65;77.45
80116;BME280;69423;47.608;19.366;2024-01-10T00:30:53;100490.13;;;-5.67;76.68
80116;BME280;69423;47.608;19.366;2024-01-10T00:31:24;100485.03;;;-5.70;76.00
80116;BME280;69423;47.608;19.366;2024-01-10T00:31:55;100483.28;;;-5.70;75.40
80116;BME280;69423;47.608;19.366;2024-01-10T00:32:30;100481.47;;;-5.67;74.70
80116;BME280;69423;47.608;19.366;2024-01-10T00:33:01;100488.44;;;-5.68;75.10
80116;BME280;69423;47.608;19.366;2024-01-10T00:33:32;100487.59;;;-5.68;75.82
80116;BME280;69423;47.608;19.366;2024-01-10T00:34:03;100486.72;;;-5.69;76.13
80116;BME280;69423;47.608;19.366;2024-01-10T00:34:34;100485.16;;;-5.75;76.42
80116;BME280;69423;47.608;19.366;2024-01-10T00:35:05;100487.81;;;-5.78;76.92
80116;BME280;69423;47.608;19.366;2024-01-10T00:35:36;100480.00;;;-5.76;76.98
80116;BME280;69423;47.608;19.366;2024-01-10T00:36:07;100492.06;;;-5.75;76.61
80116;BME280;69423;47.608;19.366;2024-01-10T00:36:38;100484.25;;;-5.74;76.30
80116;BME280;69423;47.608;19.366;2024-01-10T00:37:09;100488.50;;;-5.71;76.50
80116;BME280;69423;47.608;19.366;2024-01-10T00:37:40;100485.88;;;-5.70;76.30
80116;BME280;69423;47.608;19.366;2024-01-10T00:38:11;100491.09;;;-5.71;76.30
80116;BME280;69423;47.608;19.366;2024-01-10T00:38:42;100484.91;;;-5.67;76.13
80116;BME280;69423;47.608;19.366;2024-01-10T00:39:13;100489.25;;;-5.66;76.25
80116;BME280;69423;47.608;19.366;2024-01-10T00:39:46;100496.13;;;-5.65;76.09
80116;BME280;69423;47.608;19.366;2024-01-10T00:40:17;100491.91;;;-5.69;76.02
80116;BME280;69423;47.608;19.366;2024-01-10T00:40:48;100484.91;;;-5.67;76.48
80116;BME280;69423;47.608;19.366;2024-01-10T00:41:19;100487.47;;;-5.65;76.85
80116;BME280;69423;47.608;19.366;2024-01-10T00:41:50;100484.91;;;-5.67;76.71
80116;BME280;69423;47.608;19.366;2024-01-10T00:42:21;100490.13;;;-5.67;76.82
80116;BME280;69423;47.608;19.366;2024-01-10T00:42:52;100486.63;;;-5.66;76.85
80116;BME280;69423;47.608;19.366;2024-01-10T00:43:23;100490.94;;;-5.65;76.96
80116;BME280;69423;47.608;19.366;2024-01-10T00:43:54;100495.25;;;-5.64;77.16
80116;BME280;69423;47.608;19.366;2024-01-10T00:44:25;100495.31;;;-5.67;77.07
80116;BME280;69423;47.608;19.366;2024-01-10T00:44:56;100491.91;;;-5.69;76.64
80116;BME280;69423;47.608;19.366;2024-01-10T00:45:27;100493.69;;;-5.71;75.97
80116;BME280;69423;47.608;19.366;2024-01-10T00:45:58;100491.31;;;-5.79;75.12
80116;BME280;69423;47.608;19.366;2024-01-10T00:46:29;100493.94;;;-5.79;75.50
80116;BME280;69423;47.608;19.366;2024-01-10T00:47:00;100483.53;;;-5.79;74.86
80116;BME280;69423;47.608;19.366;2024-01-10T00:47:31;100493.84;;;-5.77;73.86
80116;BME280;69423;47.608;19.366;2024-01-10T00:48:03;100494.66;;;-5.75;73.70
80116;BME280;69423;47.608;19.366;2024-01-10T00:48:34;100484.25;;;-5.74;73.90
80116;BME280;69423;47.608;19.366;2024-01-10T00:49:05;100481.63;;;-5.72;74.73
80116;BME280;69423;47.608;19.366;2024-01-10T00:49:36;100491.09;;;-5.71;75.09
80116;BME280;69423;47.608;19.366;2024-01-10T00:50:08;100486.00;;;-5.74;74.92
80116;BME280;69423;47.608;19.366;2024-01-10T00:50:39;100492.22;;;-5.81;74.14
80116;BME280;69423;47.608;19.366;2024-01-10T00:51:10;100489.69;;;-5.83;73.85
80116;BME280;69423;47.608;19.366;2024-01-10T00:51:41;100493.13;;;-5.81;73.76
80116;BME280;69423;47.608;19.366;2024-01-10T00:52:12;100488.66;;;-5.77;73.67
80116;BME280;69423;47.608;19.366;2024-01-10T00:52:46;100485.34;;;-5.82;73.04
80116;BME280;69423;47.608;19.366;2024-01-10T00:53:17;100487.03;;;-5.81;72.91
80116;BME280;69423;47.608;19.366;2024-01-10T00:53:48;100486.97;;;-5.78;72.99
80116;BME280;69423;47.608;19.366;2024-01-10T00:54:19;100485.25;;;-5.79;72.20
80116;BME280;69423;47.608;19.366;2024-01-10T00:54:50;100484.50;;;-5.83;72.08
80116;BME280;69423;47.608;19.366;2024-01-10T00:55:22;100487.94;;;-5.82;72.51
80116;BME280;69423;47.608;19.366;2024-01-10T00:55:53;100490.56;;;-5.82;72.10
80116;BME280;69423;47.608;19.366;2024-01-10T00:56:24;100492.38;;;-5.86;71.85
80116;BME280;69423;47.608;19.366;2024-01-10T00:56:55;100486.31;;;-5.86;72.04
80116;BME280;69423;47.608;19.366;2024-01-10T00:57:26;100489.81;;;-5.87;72.13
80116;BME280;69423;47.608;19.366;2024-01-10T00:57:57;100488.09;;;-5.87;72.04
80116;BME280;69423;47.608;19.366;2024-01-10T00:58:28;100494.03;;;-5.83;72.31
80116;BME280;69423;47.608;19.366;2024-01-10T00:58:59;100495.75;;;-5.82;72.06
80116;BME280;69423;47.608;19.366;2024-01-10T00:59:30;100487.91;;;-5.81;71.71
80116;BME280;69423;47.608;19.366;2024-01-10T01:00:01;100495.56;;;-5.76;71.19
80116;BME280;69423;47.608;19.366;2024-01-10T01:00:32;100493.81;;;-5.76;71.06
80116;BME280;69423;47.608;19.366;2024-01-10T01:01:03;100494.72;;;-5.77;70.08
80116;BME280;69423;47.608;19.366;2024-01-10T01:01:34;100490.44;;;-5.79;70.42
80116;BME280;69423;47.608;19.366;2024-01-10T01:02:06;100488.91;;;-5.85;70.89
80116;BME280;69423;47.608;19.366;2024-01-10T01:02:37;100490.72;;;-5.88;70.89
80116;BME280;69423;47.608;19.366;2024-01-10T01:03:11;100491.53;;;-5.86;69.52
80116;BME280;69423;47.608;19.366;2024-01-10T01:03:42;100490.59;;;-5.84;69.53
80116;BME280;69423;47.608;19.366;2024-01-10T01:04:13;100485.56;;;-5.90;69.15
80116;BME280;69423;47.608;19.366;2024-01-10T01:04:44;100480.41;;;-5.92;68.66
80116;BME280;69423;47.608;19.366;2024-01-10T01:05:15;100489.00;;;-5.90;68.96
80116;BME280;69423;47.608;19.366;2024-01-10T01:05:46;100492.50;;;-5.91;69.02
80116;BME280;69423;47.608;19.366;2024-01-10T01:06:17;100481.16;;;-5.88;69.47
80116;BME280;69423;47.608;19.366;2024-01-10T01:06:48;100487.13;;;-5.84;69.60
80116;BME280;69423;47.608;19.366;2024-01-10T01:07:19;100486.28;;;-5.85;69.78
80116;BME280;69423;47.608;19.366;2024-01-10T01:07:50;100498.38;;;-5.84;69.96
80116;BME280;69423;47.608;19.366;2024-01-10T01:08:21;100493.13;;;-5.81;70.78
80116;BME280;69423;47.608;19.366;2024-01-10T01:08:52;100493.00;;;-5.78;71.06
80116;BME280;69423;47.608;19.366;2024-01-10T01:09:23;100488.75;;;-5.80;71.42
80116;BME280;69423;47.608;19.366;2024-01-10T01:09:55;100489.69;;;-5.83;71.45
80116;BME280;69423;47.608;19.366;2024-01-10T01:10:26;100491.38;;;-5.82;70.70
80116;BME280;69423;47.608;19.366;2024-01-10T01:10:57;100490.63;;;-5.85;69.96
80116;BME280;69423;47.608;19.366;2024-01-10T01:11:28;100497.53;;;-5.84;69.95
80116;BME280;69423;47.608;19.366;2024-01-10T01:11:59;100486.31;;;-5.86;70.00
80116;BME280;69423;47.608;19.366;2024-01-10T01:12:30;100488.72;;;-5.79;70.16
80116;BME280;69423;47.608;19.366;2024-01-10T01:13:01;100483.44;;;-5.76;70.51
80116;BME280;69423;47.608;19.366;2024-01-10T01:13:32;100485.25;;;-5.79;70.64
80116;BME280;69423;47.608;19.366;2024-01-10T01:14:03;100488.75;;;-5.80;69.96
80116;BME280;69423;47.608;19.366;2024-01-10T01:14:34;100491.38;;;-5.82;69.88
80116;BME280;69423;47.608;19.366;2024-01-10T01:15:06;100492.31;;;-5.83;69.50
80116;BME280;69423;47.608;19.366;2024-01-10T01:15:37;100486.31;;;-5.86;69.91
80116;BME280;69423;47.608;19.366;2024-01-10T01:16:08;100487.97;;;-5.84;70.28
80116;BME280;69423;47.608;19.366;2024-01-10T01:16:39;100488.75;;;-5.80;70.64
80116;BME280;69423;47.608;19.366;2024-01-10T01:17:10;100488.81;;;-5.83;70.52
80116;BME280;69423;47.608;19.366;2024-01-10T01:17:41;100494.13;;;-5.86;70.57
80116;BME280;69423;47.608;19.366;2024-01-10T01:18:12;100485.41;;;-5.85;70.49
80116;BME280;69423;47.608;19.366;2024-01-10T01:18:43;100487.97;;;-5.84;71.25
80116;BME280;69423;47.608;19.366;2024-01-10T01:19:16;100491.44;;;-5.83;71.43
80116;BME280;69423;47.608;19.366;2024-01-10T01:19:47;100495.06;;;-5.89;72.04
80116;BME280;69423;47.608;19.366;2024-01-10T01:20:18;100484.94;;;-5.98;71.63
80116;BME280;69423;47.608;19.366;2024-01-10T01:20:49;100491.00;;;-5.98;72.42
80116;BME280;69423;47.608;19.366;2024-01-10T01:21:20;100493.53;;;-5.96;72.90
80116;BME280;69423;47.608;19.366;2024-01-10T01:21:51;100487.41;;;-5.94;73.45
80116;BME280;69423;47.608;19.366;2024-01-10T01:22:23;100492.59;;;-5.94;71.71
80116;BME280;69423;47.608;19.366;2024-01-10T01:22:54;100485.53;;;-5.88;70.14
80116;BME280;69423;47.608;19.366;2024-01-10T01:23:25;100489.00;;;-5.90;69.90
80116;BME280;69423;47.608;19.366;2024-01-10T01:23:56;100486.47;;;-5.91;71.24
80116;BME280;69423;47.608;19.366;2024-01-10T01:24:27;100482.00;;;-5.87;72.37
80116;BME280;69423;47.608;19.366;2024-01-10T01:24:58;100488.94;;;-5.86;72.55
80116;BME280;69423;47.608;19.366;2024-01-10T01:25:29;100485.53;;;-5.88;71.25
80116;BME280;69423;47.608;19.366;2024-01-10T01:26:00;100477.75;;;-5.90;71.40
80116;BME280;69423;47.608;19.366;2024-01-10T01:26:31;100493.34;;;-5.90;71.65
80116;BME280;69423;47.608;19.366;2024-01-10T01:27:03;100496.75;;;-5.88;71.54
80116;BME280;69423;47.608;19.366;2024-01-10T01:27:34;100491.50;;;-5.85;71.66
80116;BME280;69423;47.608;19.366;2024-01-10T01:28:05;100486.97;;;-5.78;72.34
80116;BME280;69423;47.608;19.366;2024-01-10T01:28:36;100491.25;;;-5.77;72.77
80116;BME280;69423;47.608;19.366;2024-01-10T01:29:07;100481.84;;;-5.81;73.41
80116;BME280;69423;47.608;19.366;2024-01-10T01:29:39;100493.84;;;-5.77;73.26
80116;BME280;69423;47.608;19.366;2024-01-10T01:30:10;100483.63;;;-5.83;73.20
80116;BME280;69423;47.608;19.366;2024-01-10T01:30:42;100487.91;;;-5.81;73.95
80116;BME280;69423;47.608;19.366;2024-01-10T01:31:13;100488.75;;;-5.80;74.29
80116;BME280;69423;47.608;19.366;2024-01-10T01:31:44;100496.47;;;-5.77;74.64
80116;BME280;69423;47.608;19.366;2024-01-10T01:32:15;100489.53;;;-5.77;74.52
80116;BME280;69423;47.608;19.366;2024-01-10T01:32:46;100489.56;;;-5.78;74.47
80116;BME280;69423;47.608;19.366;2024-01-10T01:33:17;100491.22;;;-5.76;74.01
80116;BME280;69423;47.608;19.366;2024-01-10T01:33:48;100492.88;;;-5.73;73.88
80116;BME280;69423;47.608;19.366;2024-01-10T01:34:19;100491.22;;;-5.76;74.00
80116;BME280;69423;47.608;19.366;2024-01-10T01:34:50;100491.25;;;-5.77;73.89
80116;BME280;69423;47.608;19.366;2024-01-10T01:35:21;100490.63;;;-5.85;73.73
80116;BME280;69423;47.608;19.366;2024-01-10T01:35:53;100485.53;;;-5.88;73.69
80116;BME280;69423;47.608;19.366;2024-01-10T01:36:25;100491.66;;;-5.91;74.03
80116;BME280;69423;47.608;19.366;2024-01-10T01:36:56;100487.31;;;-5.91;73.50
80116;BME280;69423;47.608;19.366;2024-01-10T01:37:27;100488.31;;;-5.95;73.54
80116;BME280;69423;47.608;19.366;2024-01-10T01:37:58;100491.81;;;-5.96;73.53
80116;BME280;69423;47.608;19.366;2024-01-10T01:38:29;100483.13;;;-5.95;73.58
80116;BME280;69423;47.608;19.366;2024-01-10T01:39:00;100488.25;;;-5.93;74.47
80116;BME280;69423;47.608;19.366;2024-01-10T01:39:31;100495.13;;;-5.92;74.18
80116;BME280;69423;47.608;19.366;2024-01-10T01:40:02;100490.91;;;-5.95;73.96
80116;BME280;69423;47.608;19.366;2024-01-10T01:40:33;100496.09;;;-5.95;74.23
80116;BME280;69423;47.608;19.366;2024-01-10T01:41:04;100491.84;;;-5.97;74.60
80116;BME280;69423;47.608;19.366;2024-01-10T01:41:36;100492.59;;;-5.94;74.92
80116;BME280;69423;47.608;19.366;2024-01-10T01:42:07;100492.59;;;-5.94;75.07
80116;BME280;69423;47.608;19.366;2024-01-10T01:42:39;100489.88;;;-5.89;75.10
80116;BME280;69423;47.608;19.366;2024-01-10T01:43:22;100483.06;;;-5.93;75.18
80116;BME280;69423;47.608;19.366;2024-01-10T01:43:53;100494.19;;;-5.90;75.62
80116;BME280;69423;47.608;19.366;2024-01-10T01:44:24;100487.31;;;-5.91;74.89
80116;BME280;69423;47.608;19.366;2024-01-10T01:44:55;100491.66;;;-5.91;75.05
80116;BME280;69423;47.608;19.366;2024-01-10T01:45:26;100489.88;;;-5.89;75.27
80116;BME280;69423;47.608;19.366;2024-01-10T01:45:57;100490.63;;;-5.85;75.62
80116;BME280;69423;47.608;19.366;2024-01-10T01:46:28;100494.13;;;-5.86;75.45
80116;BME280;69423;47.608;19.366;2024-01-10T01:46:59;100496.69;;;-5.85;75.82
80116;BME280;69423;47.608;19.366;2024-01-10T01:47:32;100490.63;;;-5.85;75.69
80116;BME280;69423;47.608;19.366;2024-01-10T01:48:03;100488.94;;;-5.86;75.48
80116;BME280;69423;47.608;19.366;2024-01-10T01:48:35;100485.56;;;-5.90;76.05
80116;BME280;69423;47.608;19.366;2024-01-10T01:49:06;100484.66;;;-5.89;76.38
80116;BME280;69423;47.608;19.366;2024-01-10T01:49:38;100487.28;;;-5.89;76.38
80116;BME280;69423;47.608;19.366;2024-01-10T01:50:10;100487.22;;;-5.87;76.29
80116;BME280;69423;47.608;19.366;2024-01-10T01:50:41;100482.88;;;-5.87;76.31
80116;BME280;69423;47.608;19.366;2024-01-10T01:51:14;100488.13;;;-5.88;76.22
80116;BME280;69423;47.608;19.366;2024-01-10T01:51:46;100484.72;;;-5.91;75.49
80116;BME280;69423;47.608;19.366;2024-01-10T01:52:17;100482.94;;;-5.90;74.72
80116;BME280;69423;47.608;19.366;2024-01-10T01:52:50;100479.69;;;-5.95;73.95
80116;BME280;69423;47.608;19.366;2024-01-10T01:53:21;100485.81;;;-5.98;73.19
80116;BME280;69423;47.608;19.366;2024-01-10T01:53:53;100478.94;;;-6.00;72.97
80116;BME280;69423;47.608;19.366;2024-01-10T01:54:24;100483.22;;;-5.98;72.66
80116;BME280;69423;47.608;19.366;2024-01-10T01:54:56;100483.16;;;-5.96;72.75
80116;BME280;69423;47.608;19.366;2024-01-10T01:55:27;100470.22;;;-5.98;73.56
80116;BME280;69423;47.608;19.366;2024-01-10T01:56:01;100479.88;;;-6.03;74.19
80116;BME280;69423;47.608;19.366;2024-01-10T01:56:35;100482.44;;;-6.01;74.13
80116;BME280;69423;47.608;19.366;2024-01-10T01:57:07;100482.41;;;-6.00;74.40
80116;BME280;69423;47.608;19.366;2024-01-10T01:57:38;100475.53;;;-6.02;74.58
80116;BME280;69423;47.608;19.366;2024-01-10T01:58:09;100480.69;;;-6.01;74.71
80116;BME280;69423;47.608;19.366;2024-01-10T01:58:42;100484.94;;;-5.98;74.69
80116;BME280;69423;47.608;19.366;2024-01-10T01:59:14;100491.88;;;-5.99;75.18
80116;BME280;69423;47.608;19.366;2024-01-10T01:59:45;100484.03;;;-5.96;75.38
80116;BME280;69423;47.608;19.366;2024-01-10T02:00:16;100477.00;;;-5.94;75.25
80116;BME280;69423;47.608;19.366;2024-01-10T02:00:47;100481.59;;;-6.02;74.86
80116;BME280;69423;47.608;19.366;2024-01-10T02:01:19;100487.69;;;-6.04;74.98
80116;BME280;69423;47.608;19.366;2024-01-10T02:01:54;100478.09;;;-6.01;75.13
80116;BME280;69423;47.608;19.366;2024-01-10T02:02:27;100476.28;;;-5.99;75.61
80116;BME280;69423;47.608;19.366;2024-01-10T02:02:59;100488.47;;;-6.01;75.42
80116;BME280;69423;47.608;19.366;2024-01-10T02:03:32;100480.78;;;-6.04;76.15
80116;BME280;69423;47.608;19.366;2024-01-10T02:04:06;100485.88;;;-6.01;76.89
80116;BME280;69423;47.608;19.366;2024-01-10T02:04:37;100484.19;;;-6.02;76.95
80116;BME280;69423;47.608;19.366;2024-01-10T02:05:08;100490.28;;;-6.04;76.55
80116;BME280;69423;47.608;19.366;2024-01-10T02:05:40;100471.31;;;-6.06;76.80
80116;BME280;69423;47.608;19.366;2024-01-10T02:06:11;100469.50;;;-6.04;76.41
80116;BME280;69423;47.608;19.366;2024-01-10T02:06:42;100485.03;;;-6.01;76.31
80116;BME280;69423;47.608;19.366;2024-01-10T02:07:13;100479.06;;;-6.05;76.22
80116;BME280;69423;47.608;19.366;2024-01-10T02:07:45;100486.94;;;-6.08;76.20
80116;BME280;69423;47.608;19.366;2024-01-10T02:08:16;100488.66;;;-6.08;76.64
80116;BME280;69423;47.608;19.366;2024-01-10T02:08:47;100487.75;;;-6.06;76.91
80116;BME280;69423;47.608;19.366;2024-01-10T02:09:18;100477.38;;;-6.06;76.77
80116;BME280;69423;47.608;19.366;2024-01-10T02:09:49;100480.78;;;-6.04;76.57
80116;BME280;69423;47.608;19.366;2024-01-10T02:10:20;100483.38;;;-6.04;76.13
80116;BME280;69423;47.608;19.366;2024-01-10T02:10:51;100480.78;;;-6.04;76.43
80116;BME280;69423;47.608;19.366;2024-01-10T02:11:24;100479.06;;;-6.05;76.67
80116;BME280;69423;47.608;19.366;2024-01-10T02:11:55;100489.44;;;-6.05;76.27
80116;BME280;69423;47.608;19.366;2024-01-10T02:12:26;100489.41;;;-6.03;75.97
80116;BME280;69423;47.608;19.366;2024-01-10T02:12:57;100484.19;;;-6.02;76.12
80116;BME280;69423;47.608;19.366;2024-01-10T02:13:29;100479.03;;;-6.03;75.34
80116;BME280;69423;47.608;19.366;2024-01-10T02:14:00;100477.38;;;-6.06;75.46
80116;BME280;69423;47.608;19.366;2024-01-10T02:14:31;100486.94;;;-6.08;75.60
80116;BME280;69423;47.608;19.366;2024-01-10T02:15:02;100491.25;;;-6.08;76.02
80116;BME280;69423;47.608;19.366;2024-01-10T02:15:38;100473.16;;;-6.10;75.71
80116;BME280;69423;47.608;19.366;2024-01-10T02:16:10;100484.38;;;-6.09;74.66
80116;BME280;69423;47.608;19.366;2024-01-10T02:16:42;100486.03;;;-6.07;73.83
80116;BME280;69423;47.608;19.366;2024-01-10T02:17:13;100474.81;;;-6.07;73.55
80116;BME280;69423;47.608;19.366;2024-01-10T02:17:45;100468.75;;;-6.08;74.00
80116;BME280;69423;47.608;19.366;2024-01-10T02:18:16;100470.47;;;-6.07;74.52
80116;BME280;69423;47.608;19.366;2024-01-10T02:18:47;100480.13;;;-6.12;75.26
80116;BME280;69423;47.608;19.366;2024-01-10T02:20:07;100486.19;;;-6.13;75.28
80116;BME280;69423;47.608;19.366;2024-01-10T02:20:38;100480.13;;;-6.12;74.69
80116;BME280;69423;47.608;19.366;2024-01-10T02:21:09;100486.13;;;-6.10;74.69
80116;BME280;69423;47.608;19.366;2024-01-10T02:21:40;100488.72;;;-6.10;74.32
80116;BME280;69423;47.608;19.366;2024-01-10T02:22:12;100490.50;;;-6.12;75.02
80116;BME280;69423;47.608;19.366;2024-01-10T02:22:43;100482.72;;;-6.12;75.46
80116;BME280;69423;47.608;19.366;2024-01-10T02:23:14;100493.13;;;-6.14;75.62
80116;BME280;69423;47.608;19.366;2024-01-10T02:23:45;100482.81;;;-6.17;75.75
80116;BME280;69423;47.608;19.366;2024-01-10T02:24:16;100485.34;;;-6.14;75.99
80116;BME280;69423;47.608;19.366;2024-01-10T02:24:53;100482.78;;;-6.15;74.61
80116;BME280;69423;47.608;19.366;2024-01-10T02:25:25;100485.41;;;-6.17;73.32
80116;BME280;69423;47.608;19.366;2024-01-10T02:25:56;100478.53;;;-6.18;73.80
80116;BME280;69423;47.608;19.366;2024-01-10T02:26:27;100490.69;;;-6.20;72.88
80116;BME280;69423;47.608;19.366;2024-01-10T02:26:59;100483.72;;;-6.18;73.53
80116;BME280;69423;47.608;19.366;2024-01-10T02:27:30;100478.56;;;-6.19;74.49
80116;BME280;69423;47.608;19.366;2024-01-10T02:28:01;100481.19;;;-6.21;74.98
80116;BME280;69423;47.608;19.366;2024-01-10T02:28:32;100487.19;;;-6.19;75.01
80116;BME280;69423;47.608;19.366;2024-01-10T02:29:03;100479.38;;;-6.17;74.84
80116;BME280;69423;47.608;19.366;2024-01-10T02:29:34;100481.19;;;-6.21;75.18
80116;BME280;69423;47.608;19.366;2024-01-10T02:30:07;100483.03;;;-6.24;75.37
80116;BME280;69423;47.608;19.366;2024-01-10T02:30:39;100486.44;;;-6.22;75.67
80116;BME280;69423;47.608;19.366;2024-01-10T02:31:10;100478.69;;;-6.24;75.36
80116;BME280;69423;47.608;19.366;2024-01-10T02:31:41;100482.22;;;-6.26;75.50
80116;BME280;69423;47.608;19.366;2024-01-10T02:32:12;100477.84;;;-6.24;75.37
80116;BME280;69423;47.608;19.366;2024-01-10T02:32:43;100474.44;;;-6.26;75.33
80116;BME280;69423;47.608;19.366;2024-01-10T02:33:15;100483.88;;;-6.24;75.18
80116;BME280;69423;47.608;19.366;2024-01-10T02:33:46;100491.63;;;-6.22;75.85
80116;BME280;69423;47.608;19.366;2024-01-10T02:34:17;100486.44;;;-6.22;75.72
80116;BME280;69423;47.608;19.366;2024-01-10T02:34:48;100489.84;;;-6.20;75.68
80116;BME280;69423;47.608;19.366;2024-01-10T02:35:19;100483.03;;;-6.24;75.10
80116;BME280;69423;47.608;19.366;2024-01-10T02:35:50;100483.88;;;-6.24;74.79
80116;BME280;69423;47.608;19.366;2024-01-10T02:36:21;100485.56;;;-6.23;74.63
80116;BME280;69423;47.608;19.366;2024-01-10T02:36:52;100484.78;;;-6.25;74.37
80116;BME280;69423;47.608;19.366;2024-01-10T02:37:23;100483.91;;;-6.25;74.60
80116;BME280;69423;47.608;19.366;2024-01-10T02:37:54;100477.06;;;-6.28;74.40
80116;BME280;69423;47.608;19.366;2024-01-10T02:38:25;100486.56;;;-6.27;74.31
80116;BME280;69423;47.608;19.366;2024-01-10T02:38:57;100490.84;;;-6.26;74.35
80116;BME280;69423;47.608;19.366;2024-01-10T02:39:28;100482.94;;;-6.21;74.31
80116;BME280;69423;47.608;19.366;2024-01-10T02:39:59;100484.59;;;-6.19;74.31
80116;BME280;69423;47.608;19.366;2024-01-10T02:40:30;100479.38;;;-6.17;74.21
80116;BME280;69423;47.608;19.366;2024-01-10T02:41:01;100476.81;;;-6.19;74.62
80116;BME280;69423;47.608;19.366;2024-01-10T02:41:33;100485.41;;;-6.17;73.93
80116;BME280;69423;47.608;19.366;2024-01-10T02:42:04;100476.06;;;-6.22;73.53
80116;BME280;69423;47.608;19.366;2024-01-10T02:42:35;100480.47;;;-6.26;73.22